sensor_id;sensor_type;location;lat;lon;timestamp;P1;durP1;ratioP1;P2;durP2;ratioP2
15966;SDS011;15175;48.154;11.534;2024-03-02T00:04:33;12.82;;;7.13;;
15966;SDS011;15175;48.154;11.534;2024-03-02T00:10:36;12.88;;;6.95;;
15966;SDS011;15175;48.154;11.534;2024-03-02T00:16:40;13.10;;;7.57;;
15966;SDS011;15175;48.154;11.534;2024-03-02T00:22:45;11.60;;;6.72;;
15966;SDS011;15175;48.154;11.534;2024-03-02T00:28:47;13.82;;;7.38;;
15966;SDS011;15175;48.154;11.534;2024-03-02T00:40:54;14.48;;;6.95;;
15966;SDS011;15175;48.154;11.534;2024-03-02T00:46:57;8.82;;;4.25;;
15966;SDS011;15175;48.154;11.534;2024-03-02T00:53:01;9.13;;;6.30;;
15966;SDS011;15175;48.154;11.534;2024-03-02T00:59:05;11.23;;;6.60;;
15966;SDS011;15175;48.154;11.534;2024-03-02T01:05:08;12.40;;;7.18;;
15966;SDS011;15175;48.154;11.534;2024-03-02T01:11:10;11.48;;;6.55;;
15966;SDS011;15175;48.154;11.534;2024-03-02T01:17:14;14.43;;;6.60;;
15966;SDS011;15175;48.154;11.534;2024-03-02T01:23:17;13.70;;;8.13;;
15966;SDS011;15175;48.154;11.534;2024-03-02T01:29:19;19.40;;;8.20;;
15966;SDS011;15175;48.154;11.534;2024-03-02T01:35:23;14.85;;;8.40;;
15966;SDS011;15175;48.154;11.534;2024-03-02T01:41:25;14.32;;;8.10;;
15966;SDS011;15175;48.154;11.534;2024-03-02T01:47:27;13.35;;;7.78;;
15966;SDS011;15175;48.154;11.534;2024-03-02T01:53:31;17.15;;;9.18;;
15966;SDS011;15175;48.154;11.534;2024-03-02T01:59:34;14.05;;;7.18;;
15966;SDS011;15175;48.154;11.534;2024-03-02T02:05:36;12.38;;;7.35;;
15966;SDS011;15175;48.154;11.534;2024-03-02T02:11:40;10.23;;;5.90;;
15966;SDS011;15175;48.154;11.534;2024-03-02T02:17:42;11.57;;;5.85;;
15966;SDS011;15175;48.154;11.534;2024-03-02T02:23:46;12.00;;;6.90;;
15966;SDS011;15175;48.154;11.534;2024-03-02T02:29:48;12.18;;;6.68;;
15966;SDS011;15175;48.154;11.534;2024-03-02T02:35:50;11.77;;;6.38;;
15966;SDS011;15175;48.154;11.534;2024-03-02T02:41:54;13.80;;;6.75;;
15966;SDS011;15175;48.154;11.534;2024-03-02T02:47:56;11.63;;;6.22;;
15966;SDS011;15175;48.154;11.534;2024-03-02T02:53:58;15.68;;;6.97;;
15966;SDS011;15175;48.154;11.534;2024-03-02T03:00:04;18.23;;;8.07;;
15966;SDS011;15175;48.154;11.534;2024-03-02T03:06:10;14.75;;;7.80;;
15966;SDS011;15175;48.154;11.534;2024-03-02T03:12:12;13.20;;;7.72;;
15966;SDS011;15175;48.154;11.534;2024-03-02T03:18:16;14.23;;;7.18;;
15966;SDS011;15175;48.154;11.534;2024-03-02T03:24:19;15.38;;;8.43;;
15966;SDS011;15175;48.154;11.534;2024-03-02T03:30:21;12.27;;;7.30;;
15966;SDS011;15175;48.154;11.534;2024-03-02T03:36:24;13.65;;;7.43;;
15966;SDS011;15175;48.154;11.534;2024-03-02T03:42:26;13.70;;;7.40;;
15966;SDS011;15175;48.154;11.534;2024-03-02T03:48:29;12.10;;;6.47;;
15966;SDS011;15175;48.154;11.534;2024-03-02T03:54:33;10.65;;;6.40;;
15966;SDS011;15175;48.154;11.534;2024-03-02T04:00:37;12.65;;;6.18;;
15966;SDS011;15175;48.154;11.534;2024-03-02T04:06:39;12.85;;;7.88;;
15966;SDS011;15175;48.154;11.534;2024-03-02T04:12:43;14.43;;;6.85;;
15966;SDS011;15175;48.154;11.534;2024-03-02T04:24:47;13.43;;;7.20;;
15966;SDS011;15175;48.154;11.534;2024-03-02T04:30:50;14.00;;;8.02;;
15966;SDS011;15175;48.154;11.534;2024-03-02T04:36:52;14.50;;;8.32;;
15966;SDS011;15175;48.154;11.534;2024-03-02T04:42:55;14.75;;;8.10;;
15966;SDS011;15175;48.154;11.534;2024-03-02T04:48:58;13.52;;;8.10;;
15966;SDS011;15175;48.154;11.534;2024-03-02T04:55:00;20.13;;;8.07;;
15966;SDS011;15175;48.154;11.534;2024-03-02T05:01:38;14.10;;;8.23;;
15966;SDS011;15175;48.154;11.534;2024-03-02T05:07:41;16.17;;;8.52;;
15966;SDS011;15175;48.154;11.534;2024-03-02T05:13:44;16.60;;;9.63;;
15966;SDS011;15175;48.154;11.534;2024-03-02T05:19:46;18.95;;;9.45;;
15966;SDS011;15175;48.154;11.534;2024-03-02T05:25:50;15.18;;;8.82;;
15966;SDS011;15175;48.154;11.534;2024-03-02T05:31:53;15.00;;;8.13;;
15966;SDS011;15175;48.154;11.534;2024-03-02T05:37:55;14.25;;;8.38;;
15966;SDS011;15175;48.154;11.534;2024-03-02T05:43:58;16.45;;;9.00;;
15966;SDS011;15175;48.154;11.534;2024-03-02T05:50:01;17.70;;;9.77;;
15966;SDS011;15175;48.154;11.534;2024-03-02T05:56:04;15.32;;;8.88;;
15966;SDS011;15175;48.154;11.534;2024-03-02T06:02:08;19.40;;;9.57;;
15966;SDS011;15175;48.154;11.534;2024-03-02T06:08:10;17.00;;;9.25;;
15966;SDS011;15175;48.154;11.534;2024-03-02T06:14:12;17.52;;;9.50;;
15966;SDS011;15175;48.154;11.534;2024-03-02T06:20:16;16.90;;;9.82;;
15966;SDS011;15175;48.154;11.534;2024-03-02T06:26:18;17.02;;;10.63;;
15966;SDS011;15175;48.154;11.534;2024-03-02T06:32:21;16.48;;;9.48;;
15966;SDS011;15175;48.154;11.534;2024-03-02T06:38:24;18.52;;;10.13;;
15966;SDS011;15175;48.154;11.534;2024-03-02T06:44:29;18.83;;;10.65;;
15966;SDS011;15175;48.154;11.534;2024-03-02T06:50:31;17.35;;;10.27;;
15966;SDS011;15175;48.154;11.534;2024-03-02T06:56:35;19.58;;;11.05;;
15966;SDS011;15175;48.154;11.534;2024-03-02T07:02:38;20.80;;;10.45;;
15966;SDS011;15175;48.154;11.534;2024-03-02T07:08:41;18.88;;;9.85;;
15966;SDS011;15175;48.154;11.534;2024-03-02T07:14:45;18.40;;;9.85;;
15966;SDS011;15175;48.154;11.534;2024-03-02T07:21:11;17.00;;;9.43;;
15966;SDS011;15175;48.154;11.534;2024-03-02T07:27:13;17.13;;;9.32;;
15966;SDS011;15175;48.154;11.534;2024-03-02T07:33:17;21.00;;;9.93;;
15966;SDS011;15175;48.154;11.534;2024-03-02T07:39:21;19.02;;;10.45;;
15966;SDS011;15175;48.154;11.534;2024-03-02T07:45:24;21.00;;;11.55;;
15966;SDS011;15175;48.154;11.534;2024-03-02T07:51:28;18.10;;;10.65;;
15966;SDS011;15175;48.154;11.534;2024-03-02T07:57:30;19.70;;;10.50;;
15966;SDS011;15175;48.154;11.534;2024-03-02T08:03:33;25.17;;;10.40;;
15966;SDS011;15175;48.154;11.534;2024-03-02T08:09:37;17.55;;;9.05;;
15966;SDS011;15175;48.154;11.534;2024-03-02T08:15:39;16.08;;;9.65;;
15966;SDS011;15175;48.154;11.534;2024-03-02T08:21:42;16.25;;;9.00;;
15966;SDS011;15175;48.154;11.534;2024-03-02T08:27:46;13.27;;;7.15;;
15966;SDS011;15175;48.154;11.534;2024-03-02T08:33:48;11.80;;;6.53;;
15966;SDS011;15175;48.154;11.534;2024-03-02T08:39:50;15.52;;;9.65;;
15966;SDS011;15175;48.154;11.534;2024-03-02T08:45:54;12.75;;;6.88;;
15966;SDS011;15175;48.154;11.534;2024-03-02T08:51:56;10.10;;;6.13;;
15966;SDS011;15175;48.154;11.534;2024-03-02T08:57:59;10.48;;;6.50;;
15966;SDS011;15175;48.154;11.534;2024-03-02T09:04:03;14.73;;;5.80;;
15966;SDS011;15175;48.154;11.534;2024-03-02T09:10:05;11.75;;;5.85;;
15966;SDS011;15175;48.154;11.534;2024-03-02T09:16:08;11.88;;;6.97;;
15966;SDS011;15175;48.154;11.534;2024-03-02T09:22:12;14.73;;;7.45;;
15966;SDS011;15175;48.154;11.534;2024-03-02T09:28:15;12.38;;;8.23;;
15966;SDS011;15175;48.154;11.534;2024-03-02T09:34:17;11.57;;;7.78;;
15966;SDS011;15175;48.154;11.534;2024-03-02T09:40:22;12.60;;;7.95;;
15966;SDS011;15175;48.154;11.534;2024-03-02T09:46:25;14.57;;;6.97;;
15966;SDS011;15175;48.154;11.534;2024-03-02T09:52:27;10.88;;;6.38;;
15966;SDS011;15175;48.154;11.534;2024-03-02T09:58:31;14.98;;;7.38;;
15966;SDS011;15175;48.154;11.534;2024-03-02T10:04:33;10.18;;;5.53;;
15966;SDS011;15175;48.154;11.534;2024-03-02T10:10:37;11.10;;;5.55;;
15966;SDS011;15175;48.154;11.534;2024-03-02T10:16:44;10.05;;;5.88;;
15966;SDS011;15175;48.154;11.534;2024-03-02T10:22:47;10.05;;;5.80;;
15966;SDS011;15175;48.154;11.534;2024-03-02T10:28:49;11.32;;;6.50;;
15966;SDS011;15175;48.154;11.534;2024-03-02T10:35:00;7.50;;;3.70;;
15966;SDS011;15175;48.154;11.534;2024-03-02T10:41:03;10.68;;;5.50;;
15966;SDS011;15175;48.154;11.534;2024-03-02T10:47:06;10.13;;;4.53;;
15966;SDS011;15175;48.154;11.534;2024-03-02T10:53:11;10.48;;;4.70;;
15966;SDS011;15175;48.154;11.534;2024-03-02T10:59:16;8.65;;;4.05;;
15966;SDS011;15175;48.154;11.534;2024-03-02T11:05:40;9.45;;;4.72;;
15966;SDS011;15175;48.154;11.534;2024-03-02T11:11:48;10.57;;;5.05;;
15966;SDS011;15175;48.154;11.534;2024-03-02T11:17:56;16.50;;;7.25;;
15966;SDS011;15175;48.154;11.534;2024-03-02T11:23:59;13.82;;;7.43;;
15966;SDS011;15175;48.154;11.534;2024-03-02T11:30:04;15.32;;;6.40;;
15966;SDS011;15175;48.154;11.534;2024-03-02T11:36:07;18.15;;;7.32;;
15966;SDS011;15175;48.154;11.534;2024-03-02T11:42:11;14.82;;;7.40;;
15966;SDS011;15175;48.154;11.534;2024-03-02T11:48:16;18.52;;;7.93;;
15966;SDS011;15175;48.154;11.534;2024-03-02T11:54:21;17.65;;;9.10;;
15966;SDS011;15175;48.154;11.534;2024-03-02T12:00:23;15.90;;;6.55;;
15966;SDS011;15175;48.154;11.534;2024-03-02T12:06:27;18.15;;;8.68;;
15966;SDS011;15175;48.154;11.534;2024-03-02T12:12:30;17.40;;;8.60;;
15966;SDS011;15175;48.154;11.534;2024-03-02T12:18:32;18.85;;;8.82;;
15966;SDS011;15175;48.154;11.534;2024-03-02T12:24:37;21.00;;;9.20;;
15966;SDS011;15175;48.154;11.534;2024-03-02T12:30:39;21.70;;;9.57;;
15966;SDS011;15175;48.154;11.534;2024-03-02T12:36:42;18.88;;;8.35;;
15966;SDS011;15175;48.154;11.534;2024-03-02T12:42:49;15.35;;;7.75;;
15966;SDS011;15175;48.154;11.534;2024-03-02T12:48:52;19.52;;;8.27;;
15966;SDS011;15175;48.154;11.534;2024-03-02T13:01:06;20.52;;;11.43;;
15966;SDS011;15175;48.154;11.534;2024-03-02T13:07:11;16.02;;;8.38;;
15966;SDS011;15175;48.154;11.534;2024-03-02T13:13:14;18.27;;;8.40;;
15966;SDS011;15175;48.154;11.534;2024-03-02T13:19:18;17.35;;;9.50;;
15966;SDS011;15175;48.154;11.534;2024-03-02T13:25:20;20.02;;;10.60;;
15966;SDS011;15175;48.154;11.534;2024-03-02T13:31:22;20.77;;;10.27;;
15966;SDS011;15175;48.154;11.534;2024-03-02T13:37:26;17.05;;;9.73;;
15966;SDS011;15175;48.154;11.534;2024-03-02T13:43:29;18.17;;;10.20;;
15966;SDS011;15175;48.154;11.534;2024-03-02T13:49:32;19.40;;;11.02;;
15966;SDS011;15175;48.154;11.534;2024-03-02T13:55:37;21.52;;;10.38;;
15966;SDS011;15175;48.154;11.534;2024-03-02T14:01:40;23.20;;;10.98;;
15966;SDS011;15175;48.154;11.534;2024-03-02T14:07:42;23.00;;;12.20;;
15966;SDS011;15175;48.154;11.534;2024-03-02T14:13:46;21.00;;;10.52;;
15966;SDS011;15175;48.154;11.534;2024-03-02T14:19:54;18.45;;;8.95;;
15966;SDS011;15175;48.154;11.534;2024-03-02T14:25:57;17.92;;;7.93;;
15966;SDS011;15175;48.154;11.534;2024-03-02T14:32:01;17.33;;;8.05;;
15966;SDS011;15175;48.154;11.534;2024-03-02T14:38:03;16.20;;;7.80;;
15966;SDS011;15175;48.154;11.534;2024-03-02T14:44:06;15.80;;;8.05;;
15966;SDS011;15175;48.154;11.534;2024-03-02T14:56:13;18.08;;;8.27;;
15966;SDS011;15175;48.154;11.534;2024-03-02T15:02:15;16.17;;;8.27;;
15966;SDS011;15175;48.154;11.534;2024-03-02T15:08:19;18.65;;;8.95;;
15966;SDS011;15175;48.154;11.534;2024-03-02T15:14:21;19.95;;;10.20;;
15966;SDS011;15175;48.154;11.534;2024-03-02T15:20:23;22.52;;;10.18;;
15966;SDS011;15175;48.154;11.534;2024-03-02T15:26:27;20.20;;;11.07;;
15966;SDS011;15175;48.154;11.534;2024-03-02T15:32:29;20.65;;;10.70;;
15966;SDS011;15175;48.154;11.534;2024-03-02T15:38:31;21.83;;;10.07;;
15966;SDS011;15175;48.154;11.534;2024-03-02T15:44:37;23.75;;;11.57;;
15966;SDS011;15175;48.154;11.534;2024-03-02T15:50:40;21.17;;;11.38;;
15966;SDS011;15175;48.154;11.534;2024-03-02T15:56:42;23.27;;;10.98;;
15966;SDS011;15175;48.154;11.534;2024-03-02T16:02:46;23.50;;;12.38;;
15966;SDS011;15175;48.154;11.534;2024-03-02T16:08:48;23.08;;;12.35;;
15966;SDS011;15175;48.154;11.534;2024-03-02T16:20:54;22.95;;;11.48;;
15966;SDS011;15175;48.154;11.534;2024-03-02T16:26:57;26.05;;;13.35;;
15966;SDS011;15175;48.154;11.534;2024-03-02T16:32:59;26.83;;;13.00;;
15966;SDS011;15175;48.154;11.534;2024-03-02T16:39:02;17.38;;;9.48;;
15966;SDS011;15175;48.154;11.534;2024-03-02T16:45:05;23.63;;;11.48;;
15966;SDS011;15175;48.154;11.534;2024-03-02T16:51:08;27.85;;;13.18;;
15966;SDS011;15175;48.154;11.534;2024-03-02T16:57:11;26.00;;;11.88;;
15966;SDS011;15175;48.154;11.534;2024-03-02T17:03:14;29.33;;;12.85;;
15966;SDS011;15175;48.154;11.534;2024-03-02T17:09:18;27.73;;;12.50;;
15966;SDS011;15175;48.154;11.534;2024-03-02T17:15:22;29.17;;;13.43;;
15966;SDS011;15175;48.154;11.534;2024-03-02T17:21:24;28.92;;;13.73;;
15966;SDS011;15175;48.154;11.534;2024-03-02T17:27:26;26.92;;;13.13;;
15966;SDS011;15175;48.154;11.534;2024-03-02T17:33:32;32.67;;;14.45;;
15966;SDS011;15175;48.154;11.534;2024-03-02T17:39:34;26.63;;;14.45;;
15966;SDS011;15175;48.154;11.534;2024-03-02T17:45:36;23.77;;;11.52;;
15966;SDS011;15175;48.154;11.534;2024-03-02T17:51:41;33.13;;;13.93;;
15966;SDS011;15175;48.154;11.534;2024-03-02T17:57:43;30.20;;;15.00;;
15966;SDS011;15175;48.154;11.534;2024-03-02T18:03:46;31.90;;;14.75;;
15966;SDS011;15175;48.154;11.534;2024-03-02T18:09:50;29.40;;;14.88;;
15966;SDS011;15175;48.154;11.534;2024-03-02T18:15:52;32.53;;;14.27;;
15966;SDS011;15175;48.154;11.534;2024-03-02T18:21:56;32.67;;;15.13;;
15966;SDS011;15175;48.154;11.534;2024-03-02T18:27:59;31.63;;;14.65;;
15966;SDS011;15175;48.154;11.534;2024-03-02T18:34:01;34.22;;;14.43;;
15966;SDS011;15175;48.154;11.534;2024-03-02T18:40:05;36.58;;;16.08;;
15966;SDS011;15175;48.154;11.534;2024-03-02T18:46:09;34.00;;;16.17;;
15966;SDS011;15175;48.154;11.534;2024-03-02T18:52:12;32.10;;;13.98;;
15966;SDS011;15175;48.154;11.534;2024-03-02T18:58:14;34.38;;;15.73;;
15966;SDS011;15175;48.154;11.534;2024-03-02T19:04:17;26.38;;;11.93;;
15966;SDS011;15175;48.154;11.534;2024-03-02T19:10:20;29.42;;;13.88;;
15966;SDS011;15175;48.154;11.534;2024-03-02T19:16:22;39.35;;;15.23;;
15966;SDS011;15175;48.154;11.534;2024-03-02T19:22:26;37.30;;;14.88;;
15966;SDS011;15175;48.154;11.534;2024-03-02T19:28:28;33.50;;;16.00;;
15966;SDS011;15175;48.154;11.534;2024-03-02T19:34:31;36.60;;;17.50;;
15966;SDS011;15175;48.154;11.534;2024-03-02T19:40:34;36.40;;;16.38;;
15966;SDS011;15175;48.154;11.534;2024-03-02T19:46:37;38.65;;;17.33;;
15966;SDS011;15175;48.154;11.534;2024-03-02T19:52:39;32.20;;;13.43;;
15966;SDS011;15175;48.154;11.534;2024-03-02T19:58:42;34.78;;;16.63;;
15966;SDS011;15175;48.154;11.534;2024-03-02T20:04:45;34.30;;;15.40;;
15966;SDS011;15175;48.154;11.534;2024-03-02T20:10:47;42.03;;;17.67;;
15966;SDS011;15175;48.154;11.534;2024-03-02T20:16:51;33.20;;;14.88;;
15966;SDS011;15175;48.154;11.534;2024-03-02T20:22:53;37.15;;;17.25;;
15966;SDS011;15175;48.154;11.534;2024-03-02T20:28:55;36.83;;;17.08;;
15966;SDS011;15175;48.154;11.534;2024-03-02T20:34:59;37.17;;;18.05;;
15966;SDS011;15175;48.154;11.534;2024-03-02T20:41:01;38.35;;;18.65;;
15966;SDS011;15175;48.154;11.534;2024-03-02T20:47:04;42.28;;;18.15;;
15966;SDS011;15175;48.154;11.534;2024-03-02T20:53:07;41.70;;;19.38;;
15966;SDS011;15175;48.154;11.534;2024-03-02T20:59:10;44.38;;;18.60;;
15966;SDS011;15175;48.154;11.534;2024-03-02T21:05:12;44.92;;;19.40;;
15966;SDS011;15175;48.154;11.534;2024-03-02T21:11:16;45.33;;;20.15;;
15966;SDS011;15175;48.154;11.534;2024-03-02T21:17:18;34.83;;;13.75;;
15966;SDS011;15175;48.154;11.534;2024-03-02T21:23:20;46.40;;;19.33;;
15966;SDS011;15175;48.154;11.534;2024-03-02T21:29:24;44.60;;;18.92;;
15966;SDS011;15175;48.154;11.534;2024-03-02T21:35:26;36.88;;;14.90;;
15966;SDS011;15175;48.154;11.534;2024-03-02T21:41:31;47.33;;;19.38;;
15966;SDS011;15175;48.154;11.534;2024-03-02T21:47:35;29.95;;;14.57;;
15966;SDS011;15175;48.154;11.534;2024-03-02T21:53:37;40.55;;;17.58;;
15966;SDS011;15175;48.154;11.534;2024-03-02T21:59:40;43.35;;;19.00;;
15966;SDS011;15175;48.154;11.534;2024-03-02T22:05:43;38.45;;;14.30;;
15966;SDS011;15175;48.154;11.534;2024-03-02T22:11:45;45.28;;;19.30;;
15966;SDS011;15175;48.154;11.534;2024-03-02T22:17:48;43.22;;;19.88;;
15966;SDS011;15175;48.154;11.534;2024-03-02T22:23:52;30.95;;;12.77;;
15966;SDS011;15175;48.154;11.534;2024-03-02T22:29:54;38.25;;;17.30;;
15966;SDS011;15175;48.154;11.534;2024-03-02T22:35:56;43.40;;;18.73;;
15966;SDS011;15175;48.154;11.534;2024-03-02T22:42:00;42.35;;;18.95;;
15966;SDS011;15175;48.154;11.534;2024-03-02T22:48:02;42.25;;;18.17;;
15966;SDS011;15175;48.154;11.534;2024-03-02T22:54:05;46.22;;;19.75;;
15966;SDS011;15175;48.154;11.534;2024-03-02T23:00:09;43.85;;;19.30;;
15966;SDS011;15175;48.154;11.534;2024-03-02T23:06:22;40.95;;;15.93;;
15966;SDS011;15175;48.154;11.534;2024-03-02T23:12:24;42.80;;;17.55;;
15966;SDS011;15175;48.154;11.534;2024-03-02T23:18:28;44.65;;;19.83;;
15966;SDS011;15175;48.154;11.534;2024-03-02T23:30:33;47.15;;;17.90;;
15966;SDS011;15175;48.154;11.534;2024-03-02T23:36:37;42.00;;;21.33;;
15966;SDS011;15175;48.154;11.534;2024-03-02T23:42:39;34.25;;;15.70;;
15966;SDS011;15175;48.154;11.534;2024-03-02T23:48:41;29.00;;;11.77;;
15966;SDS011;15175;48.154;11.534;2024-03-02T23:54:45;39.85;;;18.30;;
